Time;durP1;ratioP1;P1;durP2;ratioP2;P2;SDS_P1;SDS_P2;PMS_P1;PMS_P2;Temp;Humidity;BMP_temperature;BMP_pressure;BME280_temperature;BME280_humidity;BME280_pressure;Samples;Min_cycle;Max_cycle;Signal;HPM_P1;HPM_P2
2023/08/05 00:01:12;;;;;;;5.50;3.05;;;19.00;99.90;;;;;;7389844;19;21293;-80
2023/08/05 00:03:38;;;;;;;5.47;3.00;;;19.00;99.90;;;;;;7387379;19;20218;-79
2023/08/05 00:06:04;;;;;;;4.00;2.65;;;18.90;99.90;;;;;;7389888;19;20217;-79
2023/08/05 00:08:29;;;;;;;4.85;3.00;;;19.00;99.90;;;;;;7390079;19;20164;-77
2023/08/05 00:10:55;;;;;;;3.70;2.80;;;19.00;99.90;;;;;;7389092;19;20177;-79
2023/08/05 00:13:21;;;;;;;3.15;2.70;;;18.70;99.90;;;;;;7390580;19;20361;-78
2023/08/05 00:15:49;;;;;;;3.08;2.80;;;18.80;99.90;;;;;;7384499;19;20150;-78
2023/08/05 00:18:15;;;;;;;4.60;2.88;;;18.70;99.90;;;;;;7389866;19;20575;-79
2023/08/05 00:20:41;;;;;;;3.42;2.83;;;18.80;99.90;;;;;;7389935;19;20153;-78
2023/08/05 00:23:07;;;;;;;3.63;2.72;;;18.90;99.90;;;;;;7390025;19;20291;-79
2023/08/05 00:25:32;;;;;;;4.32;2.92;;;18.80;99.90;;;;;;7388882;19;20583;-78
2023/08/05 00:27:58;;;;;;;4.00;2.90;;;18.70;99.90;;;;;;7389308;19;20634;-79
2023/08/05 00:30:24;;;;;;;4.53;3.13;;;18.80;99.90;;;;;;7388102;19;20131;-79
2023/08/05 00:32:49;;;;;;;3.40;2.70;;;18.80;99.90;;;;;;7390348;19;20262;-79
2023/08/05 00:35:15;;;;;;;3.25;2.58;;;18.70;99.90;;;;;;7391873;19;20843;-79
2023/08/05 00:37:41;;;;;;;5.00;2.90;;;18.90;99.90;;;;;;7384012;19;20147;-78
2023/08/05 00:40:08;;;;;;;3.17;2.50;;;18.70;99.90;;;;;;7387460;19;20131;-80
2023/08/05 00:42:33;;;;;;;3.03;2.53;;;18.60;99.90;;;;;;7388644;19;20162;-78
2023/08/05 00:44:59;;;;;;;3.28;2.55;;;18.70;99.90;;;;;;7387958;19;20150;-79
2023/08/05 00:47:25;;;;;;;4.20;2.70;;;18.70;99.90;;;;;;7391155;19;20157;-78
2023/08/05 00:49:52;;;;;;;3.45;2.30;;;18.80;99.90;;;;;;7387523;19;20504;-80
2023/08/05 00:52:21;;;;;;;4.25;3.05;;;18.80;99.90;;;;;;7388496;19;20130;-79
2023/08/05 00:54:48;;;;;;;4.13;2.10;;;18.80;99.90;;;;;;7388861;19;20134;-77
2023/08/05 00:57:14;;;;;;;2.85;2.42;;;18.90;99.90;;;;;;7385260;19;20613;-79
2023/08/05 00:59:40;;;;;;;3.50;2.67;;;18.90;99.90;;;;;;7389217;19;20154;-78
2023/08/05 01:02:06;;;;;;;5.72;2.80;;;18.60;99.90;;;;;;7388545;19;20123;-80
2023/08/05 01:04:32;;;;;;;2.95;2.35;;;18.50;99.90;;;;;;7384164;19;20178;-78
2023/08/05 01:06:59;;;;;;;3.25;2.30;;;18.50;99.90;;;;;;7387848;19;20506;-77
2023/08/05 01:09:25;;;;;;;3.58;2.17;;;18.60;99.90;;;;;;7388276;19;20135;-78
2023/08/05 01:11:51;;;;;;;2.95;2.20;;;18.70;99.90;;;;;;7388113;19;20499;-79
2023/08/05 01:14:17;;;;;;;3.22;2.63;;;18.80;99.90;;;;;;7389175;19;20134;-78
2023/08/05 01:16:43;;;;;;;3.58;2.65;;;18.50;99.90;;;;;;7386175;19;20467;-79
2023/08/05 01:19:23;;;;;;;3.08;2.33;;;18.50;99.90;;;;;;7387684;19;20127;-78
2023/08/05 01:22:16;;;;;;;4.72;2.50;;;18.50;99.90;;;;;;7386889;19;20135;-78
2023/08/05 01:24:51;;;;;;;3.95;2.40;;;18.60;99.90;;;;;;7387787;19;20851;-78
2023/08/05 01:27:18;;;;;;;3.60;2.22;;;18.60;99.90;;;;;;7386926;19;20172;-78
2023/08/05 01:29:45;;;;;;;2.30;2.10;;;18.50;99.90;;;;;;7388665;19;20145;-79
2023/08/05 01:32:12;;;;;;;2.80;2.10;;;18.40;99.90;;;;;;7386850;19;20179;-79
2023/08/05 01:34:39;;;;;;;5.68;2.28;;;18.50;99.90;;;;;;7384813;19;20743;-78
2023/08/05 01:37:05;;;;;;;5.05;2.97;;;18.60;99.90;;;;;;7385980;19;20139;-78
2023/08/05 01:39:31;;;;;;;5.35;2.40;;;18.50;99.90;;;;;;7387675;19;20130;-78
2023/08/05 01:41:57;;;;;;;2.38;2.00;;;18.50;99.90;;;;;;7386393;19;20449;-78
2023/08/05 01:44:22;;;;;;;3.75;2.40;;;18.60;99.90;;;;;;7387075;19;20249;-78
2023/08/05 01:46:48;;;;;;;3.60;2.20;;;18.50;99.90;;;;;;7387097;19;20226;-79
2023/08/05 01:49:14;;;;;;;3.63;2.30;;;18.40;99.90;;;;;;7392041;19;20198;-80
2023/08/05 01:51:39;;;;;;;4.03;2.30;;;18.20;99.90;;;;;;7392301;19;20139;-79
2023/08/05 01:54:05;;;;;;;2.22;2.00;;;18.20;99.90;;;;;;7395058;19;20127;-79
2023/08/05 01:56:31;;;;;;;2.30;2.10;;;18.30;99.90;;;;;;7391406;19;20158;-79
2023/08/05 01:58:57;;;;;;;3.63;2.45;;;18.30;99.90;;;;;;7393093;19;20490;-79
2023/08/05 02:01:38;;;;;;;3.50;2.47;;;18.40;99.90;;;;;;7393080;19;20127;-78
2023/08/05 02:04:04;;;;;;;3.05;2.38;;;18.70;99.90;;;;;;7393798;19;20162;-79
2023/08/05 02:06:30;;;;;;;3.03;2.60;;;18.60;99.90;;;;;;7391830;19;20194;-79
2023/08/05 02:08:55;;;;;;;3.17;2.67;;;18.70;99.90;;;;;;7394815;19;20139;-78
2023/08/05 02:11:21;;;;;;;2.97;2.40;;;18.50;99.90;;;;;;7392025;19;20161;-78
2023/08/05 02:13:47;;;;;;;4.25;2.20;;;18.40;99.90;;;;;;7388152;19;20176;-79
2023/08/05 02:16:12;;;;;;;3.17;2.70;;;18.60;99.90;;;;;;7391960;19;20165;-78
2023/08/05 02:18:38;;;;;;;5.28;3.45;;;18.70;99.90;;;;;;7396016;19;20138;-79
2023/08/05 02:21:04;;;;;;;4.50;2.97;;;18.60;99.90;;;;;;7393238;19;20619;-79
2023/08/05 02:23:30;;;;;;;5.15;2.88;;;18.70;99.90;;;;;;7391773;19;20126;-78
2023/08/05 02:25:55;;;;;;;3.08;2.25;;;18.40;99.90;;;;;;7393348;19;20146;-79
2023/08/05 02:28:21;;;;;;;3.53;2.58;;;18.60;99.90;;;;;;7388081;19;20150;-79
2023/08/05 02:30:47;;;;;;;4.97;2.60;;;18.60;99.90;;;;;;7392831;19;20567;-79
2023/08/05 02:33:12;;;;;;;4.88;2.70;;;18.60;99.90;;;;;;7392523;19;20144;-78
2023/08/05 02:35:38;;;;;;;3.65;2.75;;;18.40;99.90;;;;;;7392252;19;20126;-79
2023/08/05 02:38:04;;;;;;;4.40;2.80;;;18.40;99.90;;;;;;7392345;19;20135;-79
2023/08/05 02:40:32;;;;;;;5.43;2.63;;;18.40;99.90;;;;;;7390254;19;20175;-79
2023/08/05 02:42:58;;;;;;;5.45;2.90;;;18.30;99.90;;;;;;7392033;19;20131;-78
2023/08/05 02:45:24;;;;;;;3.50;2.55;;;18.40;99.90;;;;;;7394685;19;20160;-78
2023/08/05 02:47:49;;;;;;;2.65;2.40;;;18.30;99.90;;;;;;7390963;19;20587;-79
2023/08/05 02:50:15;;;;;;;3.85;2.55;;;18.30;99.90;;;;;;7393837;19;20159;-79
2023/08/05 02:52:43;;;;;;;6.30;2.83;;;18.30;99.90;;;;;;7391165;19;20464;-79
2023/08/05 02:55:09;;;;;;;3.40;2.60;;;18.20;99.90;;;;;;7392062;19;20142;-79
2023/08/05 02:57:34;;;;;;;2.72;2.40;;;18.10;99.90;;;;;;7388351;19;20135;-78
2023/08/05 03:00:00;;;;;;;5.28;2.90;;;18.10;99.90;;;;;;7390017;19;20499;-78
2023/08/05 03:02:26;;;;;;;4.10;2.92;;;18.20;99.90;;;;;;7393119;19;20277;-78
2023/08/05 03:04:52;;;;;;;7.25;2.97;;;18.20;99.90;;;;;;7389251;19;20157;-78
2023/08/05 03:07:18;;;;;;;3.67;2.80;;;18.30;99.90;;;;;;7392453;19;20194;-78
2023/08/05 03:09:43;;;;;;;4.00;2.90;;;18.20;99.90;;;;;;7392582;19;20160;-77
2023/08/05 03:12:09;;;;;;;3.42;2.75;;;18.20;99.90;;;;;;7389823;19;20215;-78
2023/08/05 03:14:35;;;;;;;4.35;2.63;;;18.20;99.90;;;;;;7390255;19;20137;-79
2023/08/05 03:17:01;;;;;;;3.90;2.88;;;18.10;99.90;;;;;;7387965;19;20205;-78
2023/08/05 03:19:26;;;;;;;4.35;3.22;;;18.10;99.90;;;;;;7391679;19;20158;-79
2023/08/05 03:21:52;;;;;;;4.57;3.00;;;18.00;99.90;;;;;;7389062;19;20167;-79
2023/08/05 03:24:18;;;;;;;4.20;2.95;;;18.00;99.90;;;;;;7390044;19;20194;-78
2023/08/05 03:26:43;;;;;;;3.38;3.03;;;18.10;99.90;;;;;;7388458;19;20134;-78
2023/08/05 03:29:09;;;;;;;5.97;2.60;;;18.30;99.90;;;;;;7389233;19;20148;-78
2023/08/05 03:31:35;;;;;;;3.83;3.05;;;18.30;99.90;;;;;;7388761;19;20146;-78
2023/08/05 03:34:02;;;;;;;4.10;2.83;;;18.20;99.90;;;;;;7388466;19;20145;-77
2023/08/05 03:36:28;;;;;;;4.90;3.40;;;18.30;99.90;;;;;;7387842;19;20148;-78
2023/08/05 03:38:55;;;;;;;4.40;2.63;;;18.20;99.90;;;;;;7388029;19;20210;-78
2023/08/05 03:41:21;;;;;;;4.97;2.97;;;18.20;99.90;;;;;;7388310;19;20450;-78
2023/08/05 03:43:46;;;;;;;5.25;2.75;;;18.20;99.90;;;;;;7388789;19;20134;-79
2023/08/05 03:46:12;;;;;;;4.13;2.90;;;18.30;99.90;;;;;;7388860;19;20131;-79
2023/08/05 03:48:38;;;;;;;4.32;3.28;;;18.20;99.90;;;;;;7387354;19;20131;-79
2023/08/05 03:51:04;;;;;;;5.35;3.00;;;18.00;99.90;;;;;;7389336;19;20210;-78
2023/08/05 03:53:30;;;;;;;4.20;3.38;;;18.20;99.90;;;;;;7389344;19;20603;-78
2023/08/05 03:55:55;;;;;;;5.03;3.30;;;18.20;99.90;;;;;;7387528;19;20138;-79
2023/08/05 03:58:22;;;;;;;4.93;3.17;;;18.10;99.90;;;;;;7389210;19;20131;-79
2023/08/05 04:00:48;;;;;;;5.43;3.13;;;18.10;99.90;;;;;;7386983;19;20483;-80
2023/08/05 04:03:14;;;;;;;5.47;3.00;;;18.10;99.90;;;;;;7387691;19;20151;-78
2023/08/05 04:05:40;;;;;;;4.18;3.10;;;18.00;99.90;;;;;;7389310;19;20480;-78
2023/08/05 04:08:06;;;;;;;5.40;2.95;;;18.00;99.90;;;;;;7387569;19;20467;-77
2023/08/05 04:10:34;;;;;;;7.05;3.10;;;18.20;99.90;;;;;;7385412;19;20153;-78
2023/08/05 04:13:01;;;;;;;5.82;2.78;;;18.20;99.90;;;;;;7386667;19;20139;-78
2023/08/05 04:15:28;;;;;;;3.35;2.88;;;18.30;99.90;;;;;;7387599;19;20184;-78
2023/08/05 04:17:59;;;;;;;6.93;3.30;;;18.00;99.90;;;;;;7388193;19;20450;-79
2023/08/05 04:20:27;;;;;;;3.97;2.95;;;18.10;99.90;;;;;;7387107;19;20153;-78
2023/08/05 04:22:53;;;;;;;6.47;2.90;;;18.20;99.90;;;;;;7387169;19;20154;-78
2023/08/05 04:25:19;;;;;;;4.60;3.03;;;18.30;99.90;;;;;;7389122;19;20168;-78
2023/08/05 04:27:45;;;;;;;4.35;3.25;;;18.00;99.90;;;;;;7386997;19;20202;-79
2023/08/05 04:30:11;;;;;;;6.80;3.28;;;18.00;99.90;;;;;;7385932;19;20138;-79
2023/08/05 04:32:37;;;;;;;4.60;3.17;;;18.10;99.90;;;;;;7386364;19;20149;-78
2023/08/05 04:35:03;;;;;;;4.72;3.05;;;18.10;99.90;;;;;;7388328;19;20122;-79
2023/08/05 04:37:29;;;;;;;5.90;3.35;;;18.10;99.90;;;;;;7387932;19;20442;-79
2023/08/05 04:39:54;;;;;;;5.47;3.13;;;18.20;99.90;;;;;;7387249;19;20189;-79
2023/08/05 04:42:20;;;;;;;4.45;3.08;;;18.10;99.90;;;;;;7387327;19;20151;-78
2023/08/05 04:44:46;;;;;;;7.28;3.38;;;18.10;99.90;;;;;;7386965;19;20151;-78
2023/08/05 04:47:12;;;;;;;4.55;3.70;;;18.20;99.90;;;;;;7387491;19;20134;-78
2023/08/05 04:49:42;;;;;;;3.75;3.25;;;18.20;99.90;;;;;;7387011;19;20134;-79
2023/08/05 04:52:08;;;;;;;5.47;3.80;;;18.30;99.90;;;;;;7387811;19;20158;-79
2023/08/05 04:54:43;;;;;;;3.97;3.22;;;18.10;99.90;;;;;;7388015;19;20224;-78
2023/08/05 04:57:10;;;;;;;3.78;3.47;;;18.10;99.90;;;;;;7385007;19;20135;-79
2023/08/05 04:59:36;;;;;;;5.80;3.38;;;17.90;99.90;;;;;;7385238;19;20149;-78
2023/08/05 05:02:02;;;;;;;9.50;3.22;;;18.00;99.90;;;;;;7386202;19;20199;-78
2023/08/05 05:04:31;;;;;;;6.15;3.38;;;18.00;99.90;;;;;;7385448;19;20147;-79
2023/08/05 05:06:56;;;;;;;4.85;3.33;;;17.90;99.90;;;;;;7385124;19;20139;-79
2023/08/05 05:09:22;;;;;;;4.22;3.20;;;17.90;99.90;;;;;;7387118;19;20771;-79
2023/08/05 05:11:48;;;;;;;4.82;3.25;;;18.00;99.90;;;;;;7385295;19;20486;-79
2023/08/05 05:14:13;;;;;;;3.53;2.97;;;18.00;99.90;;;;;;7385483;19;20155;-78
2023/08/05 05:16:42;;;;;;;3.10;2.65;;;18.10;99.90;;;;;;7385085;19;20155;-79
2023/08/05 05:19:08;;;;;;;5.57;3.00;;;17.90;99.90;;;;;;7384152;19;20150;-79
2023/08/05 05:21:34;;;;;;;4.10;2.83;;;17.90;99.90;;;;;;7385965;19;20134;-80
2023/08/05 05:24:00;;;;;;;4.18;3.15;;;18.00;99.90;;;;;;7392788;19;20155;-79
2023/08/05 05:26:26;;;;;;;4.22;3.17;;;17.80;99.90;;;;;;7394560;19;20142;-79
2023/08/05 05:28:51;;;;;;;4.85;3.00;;;17.90;99.90;;;;;;7392991;19;20138;-79
2023/08/05 05:31:17;;;;;;;4.70;2.80;;;18.00;99.90;;;;;;7392989;19;20142;-79
2023/08/05 05:33:47;;;;;;;3.17;2.88;;;18.00;99.90;;;;;;7391942;19;20150;-79
2023/08/05 05:36:13;;;;;;;6.03;2.72;;;18.20;99.90;;;;;;7391982;19;20138;-79
2023/08/05 05:38:38;;;;;;;6.72;2.80;;;18.20;99.90;;;;;;7392867;19;20484;-79
2023/08/05 05:41:04;;;;;;;6.68;2.97;;;18.30;99.90;;;;;;7390769;19;20251;-78
2023/08/05 05:43:30;;;;;;;3.35;2.85;;;18.30;99.90;;;;;;7392717;19;20146;-79
2023/08/05 05:45:56;;;;;;;3.67;3.20;;;18.30;99.90;;;;;;7392172;19;20130;-79
2023/08/05 05:48:21;;;;;;;4.13;2.67;;;18.30;99.90;;;;;;7391491;19;20158;-79
2023/08/05 05:50:52;;;;;;;5.63;2.70;;;18.10;99.90;;;;;;7391222;19;20159;-78
2023/08/05 05:53:18;;;;;;;4.75;2.95;;;18.20;99.90;;;;;;7394688;19;20894;-79
2023/08/05 05:55:47;;;;;;;6.72;3.40;;;18.40;99.90;;;;;;7390265;19;20198;-80
2023/08/05 05:58:15;;;;;;;4.35;3.08;;;18.20;99.90;;;;;;7391206;19;20141;-78
2023/08/05 06:00:40;;;;;;;5.38;3.28;;;18.20;99.90;;;;;;7393028;19;20138;-79
2023/08/05 06:03:06;;;;;;;4.88;2.92;;;18.30;99.90;;;;;;7393602;19;20497;-80
2023/08/05 06:05:32;;;;;;;4.50;2.70;;;18.10;99.90;;;;;;7390547;19;20123;-79
2023/08/05 06:07:58;;;;;;;4.30;2.40;;;18.10;99.90;;;;;;7391870;19;20137;-78
2023/08/05 06:10:23;;;;;;;4.57;2.83;;;18.30;99.90;;;;;;7391607;19;20935;-79
2023/08/05 06:12:49;;;;;;;3.47;2.70;;;18.20;99.90;;;;;;7394013;19;20139;-79
2023/08/05 06:15:15;;;;;;;5.13;2.65;;;18.30;99.90;;;;;;7392740;19;20139;-79
2023/08/05 06:17:41;;;;;;;3.33;2.35;;;18.50;99.90;;;;;;7390133;19;20148;-78
2023/08/05 06:20:08;;;;;;;3.83;2.88;;;18.50;99.90;;;;;;7392441;19;20146;-79
2023/08/05 06:22:34;;;;;;;5.15;2.60;;;18.60;99.90;;;;;;7394611;19;20127;-78
2023/08/05 06:25:00;;;;;;;5.90;2.58;;;18.80;99.90;;;;;;7394548;19;20270;-79
2023/08/05 06:27:26;;;;;;;4.00;2.70;;;19.00;99.90;;;;;;7396320;19;20537;-80
2023/08/05 06:29:51;;;;;;;3.85;3.08;;;19.00;99.90;;;;;;7393763;19;20146;-81
2023/08/05 06:32:17;;;;;;;2.72;2.38;;;19.00;99.90;;;;;;7394795;19;20154;-78
2023/08/05 06:34:43;;;;;;;4.07;2.40;;;18.60;99.90;;;;;;7392828;19;20134;-80
2023/08/05 06:37:09;;;;;;;3.72;2.50;;;18.90;99.90;;;;;;7390871;19;20135;-80
2023/08/05 06:39:35;;;;;;;4.70;2.83;;;19.00;99.90;;;;;;7392650;19;20138;-79
2023/08/05 06:42:01;;;;;;;4.53;2.78;;;19.10;99.90;;;;;;7392216;19;20138;-80
2023/08/05 06:44:27;;;;;;;3.30;2.75;;;19.20;99.90;;;;;;7392678;19;20178;-79
2023/08/05 06:46:52;;;;;;;4.63;2.47;;;19.30;99.90;;;;;;7395490;19;20574;-78
2023/08/05 06:49:18;;;;;;;6.20;3.00;;;19.20;99.90;;;;;;7395239;19;20150;-80
2023/08/05 06:51:44;;;;;;;3.03;2.67;;;19.10;99.90;;;;;;7391899;19;20134;-80
2023/08/05 06:54:11;;;;;;;3.92;2.90;;;19.30;99.90;;;;;;7392330;19;20547;-79
2023/08/05 06:56:37;;;;;;;2.78;2.20;;;19.50;99.90;;;;;;7392827;19;20123;-78
2023/08/05 06:59:03;;;;;;;3.88;2.85;;;19.80;99.90;;;;;;7389095;19;20176;-79
2023/08/05 07:01:30;;;;;;;3.65;2.55;;;20.00;99.90;;;;;;7392790;19;20146;-78
2023/08/05 07:03:56;;;;;;;3.20;2.40;;;19.90;99.90;;;;;;7391375;19;20277;-82
2023/08/05 07:06:22;;;;;;;4.07;2.75;;;19.70;99.90;;;;;;7392552;19;20210;-82
2023/08/05 07:08:47;;;;;;;5.25;2.80;;;19.40;99.90;;;;;;7391646;19;20181;-79
2023/08/05 07:11:13;;;;;;;3.78;2.60;;;19.40;99.90;;;;;;7391756;19;20150;-80
2023/08/05 07:13:39;;;;;;;3.58;2.28;;;19.50;99.90;;;;;;7393604;19;20159;-80
2023/08/05 07:16:05;;;;;;;4.18;2.40;;;19.70;99.90;;;;;;7392023;19;20575;-79
2023/08/05 07:18:31;;;;;;;3.45;2.40;;;20.00;99.90;;;;;;7390624;19;20159;-77
2023/08/05 07:20:58;;;;;;;3.65;2.45;;;20.10;99.90;;;;;;7392099;19;20246;-80
2023/08/05 07:23:24;;;;;;;3.47;2.70;;;20.00;99.90;;;;;;7388681;19;20145;-79
2023/08/05 07:25:50;;;;;;;4.35;2.30;;;19.70;99.90;;;;;;7386389;19;20522;-79
2023/08/05 07:28:16;;;;;;;5.20;2.20;;;19.90;99.90;;;;;;7388528;19;20766;-79
2023/08/05 07:30:42;;;;;;;3.33;1.95;;;20.10;99.90;;;;;;7391097;19;20134;-79
2023/08/05 07:33:09;;;;;;;3.42;2.30;;;20.70;99.90;;;;;;7390701;19;20448;-79
2023/08/05 07:35:36;;;;;;;4.88;2.63;;;21.00;99.90;;;;;;7389810;19;20151;-77
2023/08/05 07:38:04;;;;;;;2.38;2.15;;;21.00;99.90;;;;;;7390518;19;20133;-78
2023/08/05 07:40:31;;;;;;;3.10;2.67;;;20.70;99.90;;;;;;7391207;19;20142;-77
2023/08/05 07:43:01;;;;;;;4.45;2.60;;;20.00;99.90;;;;;;7391378;19;20135;-77
2023/08/05 07:45:26;;;;;;;3.90;2.00;;;19.90;99.90;;;;;;7389752;19;20151;-78
2023/08/05 07:47:53;;;;;;;2.63;1.95;;;19.80;99.90;;;;;;7392107;19;20488;-77
2023/08/05 07:50:22;;;;;;;3.40;2.10;;;19.70;99.90;;;;;;7393559;19;20135;-80
2023/08/05 07:52:50;;;;;;;3.38;2.10;;;20.00;99.90;;;;;;7389800;19;20135;-78
2023/08/05 07:55:15;;;;;;;3.33;2.20;;;20.30;99.90;;;;;;7389397;19;20134;-78
2023/08/05 07:57:42;;;;;;;4.70;3.10;;;20.40;99.90;;;;;;7387440;19;20149;-80
2023/08/05 08:00:10;;;;;;;3.63;2.70;;;20.50;99.90;;;;;;7391038;19;20229;-77
2023/08/05 08:02:35;;;;;;;4.47;2.25;;;20.80;99.90;;;;;;7390593;19;20141;-79
2023/08/05 08:05:05;;;;;;;2.40;2.20;;;20.60;99.90;;;;;;7390139;19;20586;-78
2023/08/05 08:07:31;;;;;;;4.82;2.58;;;20.70;99.90;;;;;;7391819;19;20134;-78
2023/08/05 08:09:57;;;;;;;3.83;2.30;;;21.00;99.90;;;;;;7388504;19;20146;-76
2023/08/05 08:12:23;;;;;;;2.40;1.80;;;21.00;99.90;;;;;;7389622;19;20850;-76
2023/08/05 08:14:48;;;;;;;5.00;3.55;;;20.90;99.90;;;;;;7390046;19;20853;-80
2023/08/05 08:17:23;;;;;;;3.22;2.55;;;21.10;99.90;;;;;;7386116;19;20131;-79
2023/08/05 08:19:50;;;;;;;3.60;2.58;;;21.30;99.90;;;;;;7390176;19;20209;-78
2023/08/05 08:22:16;;;;;;;2.42;1.92;;;21.50;99.90;;;;;;7385821;19;20167;-79
2023/08/05 08:24:41;;;;;;;4.70;2.75;;;22.00;99.90;;;;;;7386991;19;20254;-79
2023/08/05 08:27:07;;;;;;;5.15;2.00;;;22.00;99.90;;;;;;7390021;19;20127;-77
2023/08/05 08:29:33;;;;;;;4.88;2.00;;;21.60;99.90;;;;;;7388192;19;20134;-77
2023/08/05 08:31:58;;;;;;;6.13;2.28;;;21.30;99.90;;;;;;7388625;19;20752;-78
2023/08/05 08:34:24;;;;;;;2.95;2.22;;;21.00;99.90;;;;;;7388066;19;20122;-78
2023/08/05 08:36:50;;;;;;;3.13;2.15;;;20.90;99.90;;;;;;7387055;19;20606;-77
2023/08/05 08:39:16;;;;;;;2.60;2.00;;;21.10;99.90;;;;;;7387357;19;20210;-77
2023/08/05 08:41:44;;;;;;;3.08;2.22;;;21.70;99.90;;;;;;7390432;19;20563;-81
2023/08/05 08:44:11;;;;;;;4.35;2.20;;;22.00;99.90;;;;;;7387235;19;20179;-80
2023/08/05 08:46:38;;;;;;;3.30;1.90;;;22.30;99.90;;;;;;7384304;19;20154;-79
2023/08/05 08:49:04;;;;;;;2.40;1.95;;;22.60;99.90;;;;;;7387105;19;20579;-77
2023/08/05 08:51:31;;;;;;;2.38;2.13;;;22.50;99.90;;;;;;7386941;19;20139;-79
2023/08/05 08:54:02;;;;;;;2.40;1.58;;;22.20;99.90;;;;;;7386287;19;20130;-77
2023/08/05 08:56:28;;;;;;;2.65;1.85;;;22.00;99.90;;;;;;7388638;19;20138;-75
2023/08/05 08:58:54;;;;;;;3.42;1.90;;;22.20;99.90;;;;;;7391772;19;20139;-77
2023/08/05 09:01:21;;;;;;;2.65;1.92;;;22.40;99.90;;;;;;7391987;19;20167;-78
2023/08/05 09:03:51;;;;;;;2.17;1.73;;;22.30;99.90;;;;;;7392015;19;20156;-78
2023/08/05 09:06:22;;;;;;;2.90;1.70;;;22.40;99.90;;;;;;7390605;19;20161;-78
2023/08/05 09:08:50;;;;;;;3.25;1.67;;;22.40;99.90;;;;;;7389832;19;20150;-80
2023/08/05 09:11:16;;;;;;;2.70;2.08;;;22.20;99.90;;;;;;7391942;19;20218;-78
2023/08/05 09:13:42;;;;;;;7.00;6.38;;;22.00;99.90;;;;;;7390843;19;20125;-77
2023/08/05 09:16:15;;;;;;;1.75;1.65;;;22.00;99.90;;;;;;7392968;19;20127;-78
2023/08/05 09:18:51;;;;;;;3.65;1.83;;;22.10;99.90;;;;;;7393275;19;20742;-77
2023/08/05 09:21:27;;;;;;;3.33;2.13;;;22.30;99.90;;;;;;7393089;19;20143;-78
2023/08/05 09:23:55;;;;;;;2.72;1.83;;;22.80;99.90;;;;;;7396235;19;20179;-79
2023/08/05 09:26:31;;;;;;;3.10;1.92;;;23.30;99.90;;;;;;7393876;19;20182;-79
2023/08/05 09:28:59;;;;;;;2.53;1.80;;;23.60;99.90;;;;;;7394779;19;20163;-80
2023/08/05 09:31:25;;;;;;;1.92;1.73;;;23.50;99.90;;;;;;7395869;19;20222;-81
2023/08/05 09:33:51;;;;;;;2.38;1.90;;;23.30;99.90;;;;;;7395234;19;20210;-78
2023/08/05 09:36:22;;;;;;;2.35;1.50;;;22.80;99.90;;;;;;7394480;19;20202;-79
2023/08/05 09:39:06;;;;;;;3.33;1.83;;;22.50;99.90;;;;;;7393170;19;20156;-79
2023/08/05 09:41:34;;;;;;;2.35;1.70;;;22.30;99.90;;;;;;7395691;19;20138;-77
2023/08/05 09:44:01;;;;;;;2.53;1.50;;;22.20;99.90;;;;;;7394363;19;20157;-76
2023/08/05 09:46:38;;;;;;;3.13;1.67;;;22.10;99.90;;;;;;7393103;19;20135;-77
2023/08/05 09:49:06;;;;;;;1.95;1.70;;;22.00;99.90;;;;;;7391211;19;20176;-74
2023/08/05 09:51:32;;;;;;;2.35;1.48;;;22.00;99.90;;;;;;7392713;19;20130;-74
2023/08/05 09:54:02;;;;;;;5.15;2.97;;;21.70;99.90;;;;;;7393197;19;20573;-76
2023/08/05 09:56:30;;;;;;;2.83;1.70;;;21.70;99.90;;;;;;7392044;19;20153;-75
2023/08/05 09:58:56;;;;;;;2.88;1.55;;;21.70;99.90;;;;;;7393056;19;20604;-75
2023/08/05 10:01:23;;;;;;;3.58;1.55;;;21.70;99.90;;;;;;7394037;19;20134;-76
2023/08/05 10:03:49;;;;;;;2.05;1.85;;;21.80;99.90;;;;;;7391674;19;20587;-75
2023/08/05 10:06:15;;;;;;;2.00;1.65;;;21.70;99.90;;;;;;7390702;19;20165;-76
2023/08/05 10:08:42;;;;;;;2.97;1.55;;;21.60;99.90;;;;;;7390430;19;20146;-76
2023/08/05 10:11:09;;;;;;;2.42;1.70;;;21.60;99.90;;;;;;7392648;19;20451;-74
2023/08/05 10:13:39;;;;;;;3.50;1.30;;;21.60;99.90;;;;;;7391752;19;20150;-76
2023/08/05 10:16:08;;;;;;;6.25;1.40;;;21.60;99.90;;;;;;7392185;19;20598;-78
2023/08/05 10:18:35;;;;;;;2.22;1.38;;;21.70;99.90;;;;;;7393194;19;20134;-77
2023/08/05 10:21:04;;;;;;;1.75;1.45;;;21.70;99.90;;;;;;7395115;19;20149;-76
2023/08/05 10:23:33;;;;;;;1.45;1.35;;;21.70;99.90;;;;;;7394231;19;20143;-76
2023/08/05 10:26:04;;;;;;;1.80;1.45;;;21.80;99.90;;;;;;7393173;19;20138;-76
2023/08/05 10:28:38;;;;;;;2.15;1.33;;;21.90;99.90;;;;;;7390962;19;20177;-76
2023/08/05 10:31:23;;;;;;;1.45;1.35;;;21.70;99.90;;;;;;7392159;19;20140;-75
2023/08/05 10:34:11;;;;;;;2.08;1.25;;;21.60;99.90;;;;;;7390563;19;20268;-74
2023/08/05 10:36:42;;;;;;;5.50;2.90;;;21.60;99.90;;;;;;7390070;19;20154;-74
2023/08/05 10:39:39;;;;;;;2.13;1.55;;;21.70;99.90;;;;;;7392265;19;20606;-76
2023/08/05 10:42:27;;;;;;;2.40;1.40;;;21.70;99.90;;;;;;7394072;19;20143;-77
2023/08/05 10:44:54;;;;;;;14.18;3.45;;;21.70;99.90;;;;;;7393362;19;20142;-74
2023/08/05 10:47:22;;;;;;;23.13;3.17;;;21.80;99.90;;;;;;7391129;19;20142;-75
2023/08/05 10:49:59;;;;;;;5.40;1.85;;;21.80;99.90;;;;;;7391042;19;20142;-74
2023/08/05 10:52:25;;;;;;;3.30;1.42;;;21.80;99.90;;;;;;7391225;19;20161;-75
2023/08/05 10:54:53;;;;;;;2.00;1.52;;;21.70;99.90;;;;;;7389529;19;20274;-78
2023/08/05 10:57:48;;;;;;;3.00;1.50;;;21.60;99.90;;;;;;7391509;19;20143;-75
2023/08/05 11:00:20;;;;;;;2.03;1.50;;;21.60;99.90;;;;;;7391544;19;20146;-73
2023/08/05 11:02:47;;;;;;;4.75;3.25;;;21.70;99.90;;;;;;7389834;19;20636;-75
2023/08/05 11:05:13;;;;;;;4.95;3.92;;;21.80;99.90;;;;;;7387880;19;20225;-76
2023/08/05 11:07:40;;;;;;;7.15;2.92;;;21.80;99.90;;;;;;7390112;19;20138;-75
2023/08/05 11:10:07;;;;;;;3.28;2.10;;;21.80;99.90;;;;;;7391922;19;20154;-75
2023/08/05 11:12:33;;;;;;;3.45;1.88;;;21.70;99.90;;;;;;7390702;19;20138;-73
2023/08/05 11:14:59;;;;;;;1.88;1.35;;;21.80;99.90;;;;;;7388909;19;20154;-75
2023/08/05 11:17:26;;;;;;;2.63;1.60;;;21.90;99.90;;;;;;7387165;19;20158;-75
2023/08/05 11:19:56;;;;;;;2.63;1.70;;;21.90;99.90;;;;;;7380271;19;20139;-75
2023/08/05 11:22:26;;;;;;;2.90;1.60;;;21.90;99.90;;;;;;7390953;19;20135;-75
2023/08/05 11:24:59;;;;;;;3.78;1.60;;;22.00;99.90;;;;;;7389831;19;20483;-76
2023/08/05 11:27:33;;;;;;;2.60;1.60;;;22.10;99.90;;;;;;7389946;19;20650;-74
2023/08/05 11:30:16;;;;;;;3.85;1.75;;;22.10;99.90;;;;;;7390871;19;20157;-75
2023/08/05 11:32:56;;;;;;;1.98;1.67;;;22.20;99.90;;;;;;7388401;19;20145;-76
2023/08/05 11:35:26;;;;;;;3.28;1.90;;;22.20;99.90;;;;;;7390948;19;20438;-75
2023/08/05 11:37:53;;;;;;;3.35;1.90;;;22.20;99.90;;;;;;7387300;19;20138;-76
2023/08/05 11:40:19;;;;;;;4.13;1.50;;;22.20;99.90;;;;;;7388507;19;20151;-76
2023/08/05 11:42:45;;;;;;;2.15;1.70;;;22.30;99.90;;;;;;7389264;19;20149;-75
2023/08/05 11:45:12;;;;;;;2.40;1.67;;;22.30;99.90;;;;;;7389126;19;20131;-76
2023/08/05 11:47:39;;;;;;;2.42;1.33;;;22.30;99.90;;;;;;7388653;19;20147;-76
2023/08/05 11:50:06;;;;;;;3.28;1.42;;;22.10;99.90;;;;;;7389105;19;20483;-76
2023/08/05 11:52:31;;;;;;;2.13;1.42;;;22.10;99.90;;;;;;7391359;19;20134;-77
2023/08/05 11:54:59;;;;;;;2.20;1.70;;;22.10;99.90;;;;;;7389981;19;20317;-76
2023/08/05 11:57:25;;;;;;;3.83;1.80;;;22.20;99.90;;;;;;7387613;19;20141;-73
2023/08/05 11:59:51;;;;;;;1.77;1.50;;;22.10;99.90;;;;;;7389773;19;20854;-75
2023/08/05 12:02:18;;;;;;;1.92;1.40;;;22.40;99.90;;;;;;7387036;19;20137;-76
2023/08/05 12:04:46;;;;;;;1.85;1.30;;;22.50;99.90;;;;;;7387001;19;20181;-76
2023/08/05 12:07:13;;;;;;;1.77;1.33;;;22.80;99.90;;;;;;7390055;19;20135;-77
2023/08/05 12:09:39;;;;;;;1.88;1.48;;;22.80;99.90;;;;;;7388564;19;20130;-77
2023/08/05 12:12:05;;;;;;;1.92;1.40;;;22.80;99.90;;;;;;7387798;19;20127;-75
2023/08/05 12:14:31;;;;;;;2.05;1.60;;;22.80;99.90;;;;;;7388335;19;20153;-77
2023/08/05 12:16:59;;;;;;;2.05;1.60;;;23.10;99.90;;;;;;7388072;19;20139;-77
2023/08/05 12:19:29;;;;;;;1.88;1.50;;;23.20;99.90;;;;;;7390607;19;20147;-75
2023/08/05 12:21:55;;;;;;;2.58;1.80;;;23.20;99.90;;;;;;7386125;19;20211;-76
2023/08/05 12:24:20;;;;;;;1.90;1.40;;;23.10;99.90;;;;;;7390021;19;20135;-75
2023/08/05 12:26:46;;;;;;;3.40;1.75;;;22.80;99.90;;;;;;7386937;19;20131;-74
2023/08/05 12:29:12;;;;;;;3.08;1.40;;;22.50;99.90;;;;;;7388485;19;20619;-76
2023/08/05 12:31:38;;;;;;;1.55;1.27;;;22.60;99.90;;;;;;7390637;19;20141;-76
2023/08/05 12:34:03;;;;;;;1.58;1.40;;;22.60;99.90;;;;;;7386227;19;20264;-75
2023/08/05 12:36:29;;;;;;;1.83;1.50;;;22.50;99.90;;;;;;7385299;19;20153;-75
2023/08/05 12:38:55;;;;;;;2.47;1.50;;;22.60;99.90;;;;;;7385129;19;20578;-73
2023/08/05 12:41:21;;;;;;;2.67;1.50;;;22.70;99.90;;;;;;7388252;19;20126;-76
2023/08/05 12:43:47;;;;;;;2.35;1.50;;;22.50;99.90;;;;;;7384867;19;20131;-76
2023/08/05 12:46:15;;;;;;;2.05;1.60;;;22.20;99.90;;;;;;7388413;19;20146;-76
2023/08/05 12:48:43;;;;;;;3.20;1.45;;;22.20;99.90;;;;;;7388499;19;20593;-75